Terminal Aerodrome Forecast
Issued by NWS Wilmington, OH

Current Version | Previous Version | Graphics & Text | Print | Product List | Glossary On
Versions: 1 2 3 4 5 6 7 8 9 10 11 12 13 14 15 16 17 18 19
000
FTUS41 KILN 241125
TAFCMH
TAF
KCMH 241125Z 2412/2512 VRB03KT P6SM SCT120 BKN250
     FM241400 27010KT P6SM SCT030 OVC200
     FM250100 VRB03KT P6SM SCT040 BKN250=

USA.gov is the U.S. government's official web portal to all federal, state and local government web resources and services.